createdAt,value
2018-10-16T00:00:52.213Z,12.40
2018-10-16T00:03:21.622Z,12.40
2018-10-16T00:05:51.043Z,12.40
2018-10-16T00:08:20.475Z,12.30
2018-10-16T00:10:49.852Z,12.30
2018-10-16T00:13:19.228Z,12.20
2018-10-16T00:15:48.716Z,12.20
2018-10-16T00:18:18.135Z,12.20
2018-10-16T00:20:47.556Z,12.20
2018-10-16T00:23:16.908Z,12.10
2018-10-16T00:25:46.285Z,12.10
2018-10-16T00:28:15.669Z,12.10
2018-10-16T00:30:45.050Z,12.10
2018-10-16T00:33:14.477Z,12.00
2018-10-16T00:35:43.863Z,12.00
2018-10-16T00:38:13.254Z,12.00
2018-10-16T00:40:42.796Z,12.00
2018-10-16T00:43:12.267Z,12.00
2018-10-16T00:45:41.870Z,11.90
2018-10-16T00:48:11.288Z,11.90
2018-10-16T00:50:40.719Z,11.90
2018-10-16T00:53:10.142Z,11.90
2018-10-16T00:55:39.556Z,11.80
2018-10-16T00:58:08.987Z,11.90
2018-10-16T01:00:38.381Z,11.80
2018-10-16T01:03:07.798Z,11.80
2018-10-16T01:05:37.201Z,11.80
2018-10-16T01:08:06.781Z,11.70
2018-10-16T01:10:36.188Z,11.70
2018-10-16T01:13:05.610Z,11.60
2018-10-16T01:15:35.028Z,11.60
2018-10-16T01:18:04.445Z,11.60
2018-10-16T01:20:33.835Z,11.60
2018-10-16T01:23:03.254Z,11.50
2018-10-16T01:25:32.633Z,11.50
2018-10-16T01:28:02.082Z,11.50
2018-10-16T01:30:31.471Z,11.50
2018-10-16T01:33:00.961Z,11.50
2018-10-16T01:35:30.397Z,11.40
2018-10-16T01:37:59.819Z,11.50
2018-10-16T01:40:29.271Z,11.50
2018-10-16T01:42:58.690Z,11.40
2018-10-16T01:45:28.094Z,11.40
2018-10-16T01:47:57.517Z,11.40
2018-10-16T01:50:26.956Z,11.40
2018-10-16T01:52:56.390Z,11.30
2018-10-16T01:55:25.773Z,11.30
2018-10-16T01:57:55.181Z,11.30
2018-10-16T02:00:24.666Z,11.30
2018-10-16T02:02:54.230Z,11.30
2018-10-16T02:05:23.846Z,11.20
2018-10-16T02:07:53.259Z,11.30
2018-10-16T02:10:22.669Z,11.30
2018-10-16T02:12:52.125Z,11.30
2018-10-16T02:15:21.537Z,11.20
2018-10-16T02:17:50.992Z,11.20
2018-10-16T02:20:20.301Z,11.20
2018-10-16T02:22:49.736Z,11.20
2018-10-16T02:25:19.161Z,11.10
2018-10-16T02:27:48.600Z,11.20
2018-10-16T02:33:28.424Z,11.10
2018-10-16T02:35:57.864Z,11.10
2018-10-16T02:38:27.270Z,11.10
2018-10-16T02:40:56.682Z,11.10
2018-10-16T02:43:26.047Z,11.10
2018-10-16T02:45:55.491Z,11.00
2018-10-16T02:48:24.926Z,11.00
2018-10-16T02:50:54.347Z,10.90
2018-10-16T02:53:23.782Z,10.90
2018-10-16T02:55:53.177Z,10.90
2018-10-16T02:58:22.524Z,10.90
2018-10-16T03:00:52.057Z,10.90
2018-10-16T03:03:21.454Z,11.00
2018-10-16T03:05:50.833Z,10.90
2018-10-16T03:08:20.331Z,10.90
2018-10-16T03:10:49.739Z,10.90
2018-10-16T03:13:19.198Z,10.90
2018-10-16T03:15:48.590Z,10.90
2018-10-16T03:18:17.999Z,10.90
2018-10-16T03:20:47.423Z,10.90
2018-10-16T03:23:17.004Z,10.80
2018-10-16T03:25:46.432Z,10.80
2018-10-16T03:28:15.888Z,10.80
2018-10-16T03:30:45.414Z,10.80
2018-10-16T03:33:14.847Z,10.80
2018-10-16T03:35:44.244Z,10.70
2018-10-16T03:38:13.711Z,10.70
2018-10-16T03:40:43.192Z,10.70
2018-10-16T03:43:12.567Z,10.70
2018-10-16T03:45:41.992Z,10.70
2018-10-16T03:48:11.369Z,10.70
2018-10-16T03:50:40.848Z,10.70
2018-10-16T03:53:10.187Z,10.60
2018-10-16T03:55:39.554Z,10.70
2018-10-16T03:58:09.026Z,10.70
2018-10-16T04:00:38.487Z,10.80
2018-10-16T04:03:07.962Z,10.80
2018-10-16T04:05:37.408Z,10.90
2018-10-16T04:08:06.846Z,10.90
2018-10-16T04:10:36.299Z,10.90
2018-10-16T04:13:06.289Z,10.90
2018-10-16T04:15:35.601Z,10.90
2018-10-16T04:18:05.215Z,10.80
2018-10-16T04:20:34.896Z,10.80
2018-10-16T04:23:04.400Z,10.80
2018-10-16T04:25:33.936Z,10.80
2018-10-16T04:28:03.376Z,10.80
2018-10-16T04:30:32.938Z,10.80
2018-10-16T04:33:02.559Z,10.90
2018-10-16T04:35:31.963Z,10.90
2018-10-16T04:38:01.420Z,11.00
2018-10-16T04:40:30.899Z,11.10
2018-10-16T04:43:00.438Z,11.10
2018-10-16T04:45:29.907Z,11.20
2018-10-16T04:47:59.493Z,11.20
2018-10-16T04:50:28.904Z,11.30
2018-10-16T04:52:58.350Z,11.40
2018-10-16T04:55:27.734Z,11.40
2018-10-16T04:57:57.168Z,11.40
2018-10-16T05:00:27.379Z,11.50
2018-10-16T05:02:58.897Z,11.50
2018-10-16T05:05:28.808Z,11.50
2018-10-16T05:07:58.266Z,11.50
2018-10-16T05:10:27.674Z,11.60
2018-10-16T05:12:57.036Z,11.60
2018-10-16T05:15:30.191Z,11.50
2018-10-16T05:17:59.693Z,11.50
2018-10-16T05:20:29.089Z,11.50
2018-10-16T05:22:59.588Z,11.50
2018-10-16T05:25:30.037Z,11.40
2018-10-16T05:27:59.498Z,11.50
2018-10-16T05:30:28.929Z,11.50
2018-10-16T05:32:58.374Z,11.50
2018-10-16T05:35:27.826Z,11.60
2018-10-16T05:37:57.198Z,11.60
2018-10-16T05:40:26.659Z,11.70
2018-10-16T05:42:56.043Z,11.70
2018-10-16T05:45:26.397Z,11.70
2018-10-16T05:47:55.861Z,11.70
2018-10-16T05:50:25.301Z,11.60
2018-10-16T05:52:54.727Z,11.60
2018-10-16T05:55:24.165Z,11.60
2018-10-16T05:57:53.542Z,11.50
2018-10-16T06:00:36.434Z,11.40
2018-10-16T06:03:06.066Z,11.40
2018-10-16T06:05:35.770Z,11.40
2018-10-16T06:08:05.550Z,11.40
2018-10-16T06:10:35.018Z,11.40
2018-10-16T06:13:04.418Z,11.40
2018-10-16T06:15:33.843Z,11.40
2018-10-16T06:18:03.271Z,11.40
2018-10-16T06:20:32.692Z,11.40
2018-10-16T06:23:02.318Z,11.30
2018-10-16T06:25:31.920Z,11.40
2018-10-16T06:28:15.524Z,11.30
2018-10-16T06:30:44.935Z,11.30
2018-10-16T06:33:15.762Z,11.30
2018-10-16T06:35:45.261Z,11.30
2018-10-16T06:38:14.685Z,11.30
2018-10-16T06:40:44.293Z,11.30
2018-10-16T06:43:13.623Z,11.30
2018-10-16T06:45:43.062Z,11.30
2018-10-16T06:48:12.651Z,11.40
2018-10-16T06:50:41.995Z,11.40
2018-10-16T06:53:11.541Z,11.40
2018-10-16T06:55:41.045Z,11.40
2018-10-16T06:58:10.515Z,11.50
2018-10-16T07:00:40.522Z,11.50
2018-10-16T07:03:10.082Z,11.50
2018-10-16T07:05:39.636Z,11.60
2018-10-16T07:08:09.092Z,11.70
2018-10-16T07:10:38.621Z,11.70
2018-10-16T07:13:08.011Z,11.70
2018-10-16T07:15:37.530Z,11.70
2018-10-16T07:18:07.214Z,11.80
2018-10-16T07:20:36.736Z,11.90
2018-10-16T07:23:06.145Z,11.90
2018-10-16T07:25:35.663Z,11.90
2018-10-16T07:28:05.178Z,11.90
2018-10-16T07:30:34.809Z,12.00
2018-10-16T07:33:04.340Z,12.10
2018-10-16T07:35:33.908Z,12.20
2018-10-16T07:38:03.551Z,12.20
2018-10-16T07:40:32.915Z,12.30
2018-10-16T07:43:02.558Z,12.40
2018-10-16T07:45:32.074Z,12.40
2018-10-16T07:48:01.625Z,12.50
2018-10-16T07:50:31.064Z,12.50
2018-10-16T07:53:00.505Z,12.50
2018-10-16T07:55:29.903Z,12.50
2018-10-16T07:57:59.418Z,12.60
2018-10-16T08:00:28.793Z,12.70
2018-10-16T08:02:58.324Z,12.70
2018-10-16T08:05:27.755Z,12.80
2018-10-16T08:08:01.455Z,12.90
2018-10-16T08:10:31.129Z,12.90
2018-10-16T08:13:00.757Z,13.00
2018-10-16T08:15:30.229Z,13.00
2018-10-16T08:17:59.796Z,13.00
2018-10-16T08:20:29.280Z,13.10
2018-10-16T08:22:58.696Z,13.10
2018-10-16T08:25:28.156Z,13.20
2018-10-16T08:27:57.807Z,13.20
2018-10-16T08:30:27.315Z,13.20
2018-10-16T08:32:57.317Z,13.30
2018-10-16T08:35:26.722Z,13.40
2018-10-16T08:40:11.507Z,13.50
2018-10-16T08:42:57.322Z,13.50
2018-10-16T08:45:43.895Z,13.70
2018-10-16T08:48:30.205Z,13.80
2018-10-16T08:51:16.689Z,13.90
2018-10-16T08:53:46.108Z,14.00
2018-10-16T08:56:15.578Z,14.00
2018-10-16T08:58:45.063Z,14.20
2018-10-16T09:01:14.522Z,14.20
2018-10-16T09:03:43.961Z,14.30
2018-10-16T09:06:13.555Z,14.40
2018-10-16T09:08:43.172Z,14.50
2018-10-16T09:11:12.679Z,14.60
2018-10-16T09:13:42.260Z,14.60
2018-10-16T09:16:11.647Z,14.70
2018-10-16T09:18:41.112Z,14.80
2018-10-16T09:21:10.511Z,14.90
2018-10-16T09:23:39.967Z,15.10
2018-10-16T09:26:09.478Z,15.20
2018-10-16T09:28:39.135Z,15.20
2018-10-16T09:31:09.359Z,15.30
2018-10-16T09:33:38.794Z,15.40
2018-10-16T09:36:08.521Z,15.50
2018-10-16T09:38:38.301Z,15.70
2018-10-16T09:41:07.891Z,16.00
2018-10-16T09:43:37.457Z,16.10
2018-10-16T09:46:06.948Z,16.20
2018-10-16T09:48:36.547Z,16.40
2018-10-16T09:51:06.255Z,16.50
2018-10-16T09:53:35.730Z,16.60
2018-10-16T09:56:05.633Z,16.60
2018-10-16T09:58:35.056Z,16.70
2018-10-16T10:01:09.719Z,16.80
2018-10-16T10:03:39.154Z,16.90
2018-10-16T10:06:08.597Z,17.00
2018-10-16T10:08:37.979Z,17.00
2018-10-16T10:11:07.609Z,17.10
2018-10-16T10:13:37.216Z,17.20
2018-10-16T10:16:07.172Z,17.30
2018-10-16T10:18:36.671Z,17.40
2018-10-16T10:21:06.113Z,17.50
2018-10-16T10:23:35.524Z,17.70
2018-10-16T10:26:04.949Z,17.70
2018-10-16T10:28:34.455Z,17.80
2018-10-16T10:31:03.984Z,17.90
2018-10-16T10:33:33.389Z,18.00
2018-10-16T10:36:02.738Z,18.00
2018-10-16T10:38:32.130Z,18.20
2018-10-16T10:41:01.851Z,18.30
2018-10-16T10:43:31.279Z,18.50
2018-10-16T10:46:00.675Z,18.50
2018-10-16T10:48:30.085Z,18.70
2018-10-16T10:50:59.816Z,18.80
2018-10-16T10:53:28.983Z,18.90
2018-10-16T10:55:58.482Z,19.00
2018-10-16T10:58:28.024Z,19.10
2018-10-16T11:00:57.422Z,19.20
2018-10-16T11:03:26.960Z,19.30
2018-10-16T11:05:56.231Z,19.50
2018-10-16T11:08:25.613Z,19.50
2018-10-16T11:10:55.056Z,19.50
2018-10-16T11:13:24.463Z,19.60
2018-10-16T11:15:53.911Z,19.80
2018-10-16T11:18:23.344Z,19.90
2018-10-16T11:20:52.816Z,19.90
2018-10-16T11:23:22.235Z,20.10
2018-10-16T11:25:51.600Z,20.20
2018-10-16T11:28:21.053Z,20.30
2018-10-16T11:30:50.529Z,20.40
2018-10-16T11:33:20.025Z,20.40
2018-10-16T11:35:49.536Z,20.50
2018-10-16T11:38:19.017Z,20.60
2018-10-16T11:40:48.435Z,20.70
2018-10-16T11:43:17.821Z,20.70
2018-10-16T11:45:47.270Z,20.80
2018-10-16T11:48:16.701Z,21.00
2018-10-16T11:50:46.155Z,21.10
2018-10-16T11:53:15.535Z,21.10
2018-10-16T11:55:45.267Z,21.30
2018-10-16T11:58:14.706Z,21.30
2018-10-16T12:00:44.101Z,21.40
2018-10-16T12:03:13.486Z,21.40
2018-10-16T12:05:42.908Z,21.40
2018-10-16T12:08:13.592Z,21.50
2018-10-16T12:10:43.379Z,21.60
2018-10-16T12:13:13.762Z,21.60
2018-10-16T12:15:43.364Z,21.70
2018-10-16T12:19:18.260Z,21.70
2018-10-16T12:21:47.576Z,21.70
2018-10-16T12:24:17.026Z,21.80
2018-10-16T12:26:46.402Z,21.80
2018-10-16T12:29:15.783Z,21.90
2018-10-16T12:31:45.172Z,21.90
2018-10-16T12:34:14.539Z,22.00
2018-10-16T12:36:44.027Z,22.00
2018-10-16T12:39:14.428Z,22.10
2018-10-16T12:41:43.798Z,22.10
2018-10-16T12:44:13.211Z,22.10
2018-10-16T12:46:42.675Z,22.10
2018-10-16T12:49:12.062Z,22.10
2018-10-16T12:51:41.498Z,22.10
2018-10-16T12:54:10.965Z,22.10
2018-10-16T12:56:40.307Z,22.10
2018-10-16T12:59:13.542Z,22.10
2018-10-16T13:01:42.914Z,22.10
2018-10-16T13:04:12.443Z,22.10
2018-10-16T13:06:42.319Z,22.00
2018-10-16T13:09:12.623Z,22.00
2018-10-16T13:11:42.924Z,22.00
2018-10-16T13:14:11.667Z,22.00
2018-10-16T13:16:41.074Z,22.00
2018-10-16T13:19:10.469Z,22.10
2018-10-16T13:21:39.809Z,22.10
2018-10-16T13:24:08.531Z,22.20
2018-10-16T13:26:37.990Z,22.30
2018-10-16T13:29:07.469Z,22.30
2018-10-16T13:31:36.837Z,22.30
2018-10-16T13:34:06.551Z,22.30
2018-10-16T13:36:35.887Z,22.30
2018-10-16T13:39:07.641Z,22.30
2018-10-16T13:41:37.059Z,22.20
2018-10-16T13:44:06.539Z,22.20
2018-10-16T13:46:35.997Z,22.20
2018-10-16T13:49:05.777Z,22.30
2018-10-16T13:51:35.205Z,22.30
2018-10-16T13:54:04.814Z,22.30
2018-10-16T13:56:34.295Z,22.30
2018-10-16T13:59:03.778Z,22.40
2018-10-16T14:01:33.127Z,22.30
2018-10-16T14:04:02.559Z,22.40
2018-10-16T14:06:31.950Z,22.40
2018-10-16T14:09:01.335Z,22.40
2018-10-16T14:11:30.692Z,22.40
2018-10-16T14:14:00.119Z,22.40
2018-10-16T14:16:29.525Z,22.50
2018-10-16T14:18:58.874Z,22.50
2018-10-16T14:21:28.823Z,22.50
2018-10-16T14:23:58.183Z,22.50
2018-10-16T14:26:27.621Z,22.50
2018-10-16T14:28:56.958Z,22.40
2018-10-16T14:31:26.410Z,22.40
2018-10-16T14:33:55.153Z,22.40
2018-10-16T14:36:24.431Z,22.40
2018-10-16T14:38:54.120Z,22.40
2018-10-16T14:41:23.496Z,22.50
2018-10-16T14:43:52.962Z,22.50
2018-10-16T14:46:22.422Z,22.40
2018-10-16T14:48:51.775Z,22.50
2018-10-16T14:51:21.216Z,22.40
2018-10-16T14:53:50.642Z,22.50
2018-10-16T14:56:20.018Z,22.50
2018-10-16T14:58:49.378Z,22.50
2018-10-16T15:01:18.754Z,22.50
2018-10-16T15:03:48.162Z,22.50
2018-10-16T15:06:17.527Z,22.50
2018-10-16T15:08:46.939Z,22.50
2018-10-16T15:11:16.336Z,22.50
2018-10-16T15:13:45.198Z,22.50
2018-10-16T15:16:14.750Z,22.30
2018-10-16T15:18:43.386Z,22.30
2018-10-16T15:21:12.780Z,22.30
2018-10-16T15:23:41.472Z,22.30
2018-10-16T15:26:10.921Z,22.30
2018-10-16T15:28:40.255Z,22.20
2018-10-16T15:31:09.792Z,22.20
2018-10-16T15:33:39.179Z,22.20
2018-10-16T15:36:07.893Z,22.10
2018-10-16T15:38:36.538Z,22.10
2018-10-16T15:41:05.564Z,22.10
2018-10-16T15:43:35.027Z,22.10
2018-10-16T15:46:03.771Z,22.00
2018-10-16T15:48:34.172Z,22.00
2018-10-16T15:51:05.128Z,21.90
2018-10-16T15:53:34.336Z,21.90
2018-10-16T15:56:03.578Z,21.90
2018-10-16T15:58:32.891Z,21.80
2018-10-16T16:01:01.530Z,21.70
2018-10-16T16:03:30.234Z,21.70
2018-10-16T16:05:58.883Z,21.60
2018-10-16T16:08:27.577Z,21.60
2018-10-16T16:10:56.272Z,21.50
2018-10-16T16:13:24.900Z,21.40
2018-10-16T16:15:53.616Z,21.40
2018-10-16T16:18:22.369Z,21.30
2018-10-16T16:20:50.951Z,21.30
2018-10-16T16:23:19.661Z,21.20
2018-10-16T16:25:49.151Z,21.20
2018-10-16T16:46:49.425Z,20.30
2018-10-16T16:49:18.393Z,20.30
2018-10-16T16:51:47.071Z,20.20
2018-10-16T16:54:16.733Z,20.20
2018-10-16T16:56:45.469Z,20.20
2018-10-16T16:59:14.132Z,20.10
2018-10-16T17:01:43.587Z,20.20
2018-10-16T17:04:13.086Z,20.20
2018-10-16T17:06:42.380Z,20.20
2018-10-16T17:09:13.314Z,20.30
2018-10-16T17:11:42.008Z,20.40
2018-10-16T17:14:10.791Z,20.40
2018-10-16T17:16:40.201Z,20.40
2018-10-16T17:19:09.693Z,20.40
2018-10-16T17:21:39.248Z,20.40
2018-10-16T17:24:08.716Z,20.40
2018-10-16T17:26:38.251Z,20.30
2018-10-16T17:29:07.782Z,20.20
2018-10-16T17:31:37.245Z,20.00
2018-10-16T17:34:07.431Z,20.00
2018-10-16T17:36:36.780Z,19.80
2018-10-16T17:39:09.253Z,19.70
2018-10-16T17:41:38.654Z,19.60
2018-10-16T17:44:08.676Z,19.50
2018-10-16T17:46:38.182Z,19.40
2018-10-16T17:49:08.076Z,19.30
2018-10-16T17:51:37.503Z,19.20
2018-10-16T17:54:06.928Z,19.00
2018-10-16T17:56:37.178Z,18.90
2018-10-16T17:59:06.869Z,18.80
2018-10-16T18:01:36.364Z,18.70
2018-10-16T18:04:06.174Z,18.60
2018-10-16T18:06:35.642Z,18.50
2018-10-16T18:09:06.632Z,18.50
2018-10-16T18:11:36.400Z,18.30
2018-10-16T18:14:06.407Z,18.20
2018-10-16T18:16:35.832Z,18.20
2018-10-16T18:19:05.292Z,18.20
2018-10-16T18:21:34.807Z,18.10
2018-10-16T18:24:04.650Z,18.10
2018-10-16T18:26:34.066Z,18.10
2018-10-16T18:29:03.712Z,18.10
2018-10-16T18:31:33.255Z,18.10
2018-10-16T18:34:02.734Z,18.10
2018-10-16T18:36:32.179Z,18.10
2018-10-16T18:39:01.895Z,18.00
2018-10-16T18:41:31.326Z,18.00
2018-10-16T18:44:00.719Z,17.90
2018-10-16T18:46:30.239Z,17.80
2018-10-16T18:48:59.700Z,17.70
2018-10-16T18:51:29.926Z,17.60
2018-10-16T18:53:59.725Z,17.50
2018-10-16T18:56:30.151Z,17.40
2018-10-16T18:59:00.709Z,17.40
2018-10-16T19:01:30.219Z,17.30
2018-10-16T19:03:59.763Z,17.20
2018-10-16T19:06:29.311Z,17.20
2018-10-16T19:08:58.966Z,17.10
2018-10-16T19:11:28.415Z,17.00
2018-10-16T19:13:58.903Z,16.90
2018-10-16T19:16:28.620Z,16.80
2018-10-16T19:18:58.160Z,16.80
2018-10-16T19:21:27.885Z,16.70
2018-10-16T19:24:01.016Z,16.60
2018-10-16T19:26:30.727Z,16.20
2018-10-16T19:29:00.190Z,16.40
2018-10-16T19:31:29.737Z,16.40
2018-10-16T19:33:59.344Z,16.30
2018-10-16T19:36:29.025Z,16.30
2018-10-16T19:38:58.610Z,16.20
2018-10-16T19:41:28.169Z,16.10
2018-10-16T19:43:57.816Z,16.10
2018-10-16T19:46:27.639Z,16.10
2018-10-16T19:48:57.170Z,16.00
2018-10-16T19:51:26.693Z,16.00
2018-10-16T19:53:56.231Z,15.90
2018-10-16T19:56:25.619Z,15.90
2018-10-16T19:58:55.180Z,15.80
2018-10-16T20:01:24.669Z,15.80
2018-10-16T20:03:54.209Z,15.70
2018-10-16T20:06:23.732Z,15.70
2018-10-16T20:08:53.256Z,15.70
2018-10-16T20:11:22.840Z,15.60
2018-10-16T20:13:52.360Z,15.60
2018-10-16T20:16:21.902Z,15.50
2018-10-16T20:18:51.588Z,15.50
2018-10-16T20:21:21.060Z,15.40
2018-10-16T20:23:50.475Z,15.40
2018-10-16T20:26:19.945Z,15.30
2018-10-16T20:28:49.446Z,15.30
2018-10-16T20:31:18.889Z,15.30
2018-10-16T20:33:48.334Z,15.20
2018-10-16T20:36:17.817Z,15.10
2018-10-16T20:38:47.290Z,15.10
2018-10-16T20:41:16.700Z,15.00
2018-10-16T20:43:46.157Z,15.00
2018-10-16T20:46:15.596Z,15.00
2018-10-16T20:48:45.315Z,15.00
2018-10-16T20:51:14.806Z,14.90
2018-10-16T20:53:44.402Z,14.90
2018-10-16T20:56:13.833Z,14.80
2018-10-16T20:58:43.317Z,14.80
2018-10-16T21:01:14.120Z,14.80
2018-10-16T21:03:43.472Z,14.70
2018-10-16T21:06:13.372Z,14.70
2018-10-16T21:08:42.653Z,14.70
2018-10-16T21:11:12.080Z,14.60
2018-10-16T21:13:41.536Z,14.60
2018-10-16T21:16:11.021Z,14.50
2018-10-16T21:18:40.575Z,14.50
2018-10-16T21:21:10.027Z,14.40
2018-10-16T21:23:39.458Z,14.40
2018-10-16T21:26:09.071Z,14.40
2018-10-16T21:28:38.662Z,14.40
2018-10-16T21:31:08.291Z,14.40
2018-10-16T21:33:37.729Z,14.30
2018-10-16T21:36:07.539Z,14.30
2018-10-16T21:38:37.073Z,14.20
2018-10-16T21:41:06.572Z,14.30
2018-10-16T21:43:35.871Z,14.20
2018-10-16T21:46:06.221Z,14.20
2018-10-16T21:48:35.669Z,14.10
2018-10-16T21:51:05.140Z,14.10
2018-10-16T21:53:34.637Z,14.10
2018-10-16T21:56:04.050Z,14.00
2018-10-16T21:58:33.554Z,14.00
2018-10-16T22:01:09.532Z,14.00
2018-10-16T22:03:39.469Z,14.00
2018-10-16T22:06:08.928Z,14.00
2018-10-16T22:08:38.294Z,13.90
2018-10-16T22:11:07.831Z,13.80
2018-10-16T22:13:37.176Z,13.80
2018-10-16T22:16:06.632Z,13.70
2018-10-16T22:18:36.043Z,13.70
2018-10-16T22:21:05.679Z,13.70
2018-10-16T22:23:35.164Z,13.70
2018-10-16T22:26:04.563Z,13.60
2018-10-16T22:28:33.968Z,13.50
2018-10-16T22:31:03.505Z,13.50
2018-10-16T22:33:32.936Z,13.40
2018-10-16T22:36:02.391Z,13.40
2018-10-16T22:38:31.771Z,13.40
2018-10-16T22:41:01.341Z,13.30
2018-10-16T22:43:30.835Z,13.30
2018-10-16T22:46:00.367Z,13.20
2018-10-16T22:48:29.898Z,13.30
2018-10-16T22:50:59.503Z,13.30
2018-10-16T22:53:28.891Z,13.30
2018-10-16T22:55:58.290Z,13.20
2018-10-16T22:58:27.688Z,13.20
2018-10-16T23:00:57.135Z,13.20
2018-10-16T23:03:26.405Z,13.20
2018-10-16T23:05:55.846Z,13.10
2018-10-16T23:08:25.219Z,13.10
2018-10-16T23:10:54.611Z,13.20
2018-10-16T23:13:24.025Z,13.10
2018-10-16T23:15:53.450Z,13.10
2018-10-16T23:18:22.828Z,13.10
2018-10-16T23:20:52.295Z,13.20
2018-10-16T23:23:21.695Z,13.20
2018-10-16T23:25:51.156Z,13.10
2018-10-16T23:28:20.527Z,13.00
2018-10-16T23:30:50.021Z,13.00
2018-10-16T23:33:19.403Z,13.00
2018-10-16T23:35:48.859Z,13.00
2018-10-16T23:38:18.254Z,13.00
2018-10-16T23:40:47.765Z,13.00
2018-10-16T23:43:17.224Z,13.10
2018-10-16T23:45:46.548Z,13.10
2018-10-16T23:48:16.049Z,13.20
2018-10-16T23:50:45.457Z,13.20
2018-10-16T23:53:15.003Z,13.20
2018-10-16T23:55:44.416Z,13.20
2018-10-16T23:58:13.790Z,13.20
